Time;durP1;ratioP1;P1;durP2;ratioP2;P2;SDS_P1;SDS_P2;PMS_P1;PMS_P2;Temp;Humidity;BMP_temperature;BMP_pressure;BME280_temperature;BME280_humidity;BME280_pressure;Samples;Min_cycle;Max_cycle;Signal;HPM_P1;HPM_P2
2022/05/01 00:00:20;;;;;;;0.00;0.00;;;;;;;;;;5027626;28;20029;-59
2022/05/01 00:02:45;;;;;;;0.00;0.00;;;;;;;;;;5027447;28;20025;-59
2022/05/01 00:05:11;;;;;;;0.00;0.00;;;;;;;;;;5027644;28;20363;-60
2022/05/01 00:07:37;;;;;;;0.00;0.00;;;;;;;;;;5034401;28;20100;-60
2022/05/01 00:10:02;;;;;;;0.00;0.00;;;;;;;;;;5034537;28;20032;-60
2022/05/01 00:12:29;;;;;;;0.00;0.00;;;;;;;;;;5034222;28;20032;-61
2022/05/01 00:14:54;;;;;;;0.10;0.10;;;;;;;;;;5033113;28;20020;-61
2022/05/01 00:17:19;;;;;;;0.00;0.00;;;;;;;;;;5032660;28;20033;-62
2022/05/01 00:19:45;;;;;;;0.00;0.00;;;;;;;;;;5034632;28;20108;-61
2022/05/01 00:22:10;;;;;;;0.47;0.47;;;;;;;;;;5033984;28;20104;-60
2022/05/01 00:24:35;;;;;;;1.02;0.57;;;;;;;;;;5034868;28;20028;-59
2022/05/01 00:27:01;;;;;;;0.22;0.22;;;;;;;;;;5034092;28;20022;-59
2022/05/01 00:29:26;;;;;;;0.00;0.00;;;;;;;;;;5033735;28;20113;-59
2022/05/01 00:31:51;;;;;;;0.40;0.40;;;;;;;;;;5034253;28;20025;-59
2022/05/01 00:37:00;;;;;;;0.00;0.00;;;;;;;;;;5033525;28;20029;-61
2022/05/01 00:39:25;;;;;;;0.00;0.00;;;;;;;;;;5035140;28;20033;-61
2022/05/01 00:41:51;;;;;;;0.00;0.00;;;;;;;;;;5033986;28;20022;-62
2022/05/01 00:44:17;;;;;;;0.00;0.00;;;;;;;;;;5034522;28;20017;-61
2022/05/01 00:46:46;;;;;;;0.00;0.00;;;;;;;;;;5032373;28;20041;-61
2022/05/01 00:49:15;;;;;;;0.00;0.00;;;;;;;;;;5034471;28;20418;-62
2022/05/01 00:51:44;;;;;;;;;;;;;;;;;;5034487;28;20021;-61
2022/05/01 00:54:10;;;;;;;0.00;0.00;;;;;;;;;;5033602;28;19909;-61
2022/05/01 00:56:37;;;;;;;0.00;0.00;;;;;;;;;;5034045;28;20079;-60
2022/05/01 00:59:02;;;;;;;0.00;0.00;;;;;;;;;;5034807;28;20029;-60
2022/05/01 01:01:27;;;;;;;0.00;0.00;;;;;;;;;;5034050;28;20437;-60
2022/05/01 01:03:54;;;;;;;0.00;0.00;;;;;;;;;;5035535;28;20359;-58
2022/05/01 01:06:20;;;;;;;0.00;0.00;;;;;;;;;;5033804;28;20025;-58
2022/05/01 01:08:45;;;;;;;0.00;0.00;;;;;;;;;;5033776;28;20072;-59
2022/05/01 01:11:10;;;;;;;0.00;0.00;;;;;;;;;;5034058;28;20032;-59
2022/05/01 01:13:35;;;;;;;0.00;0.00;;;;;;;;;;5034543;28;20021;-59
2022/05/01 01:16:06;;;;;;;0.00;0.00;;;;;;;;;;5033386;28;20018;-58
2022/05/01 01:18:32;;;;;;;0.00;0.00;;;;;;;;;;5031423;28;20025;-58
2022/05/01 01:20:57;;;;;;;0.00;0.00;;;;;;;;;;5030882;28;20075;-58
2022/05/01 01:23:23;;;;;;;0.00;0.00;;;;;;;;;;5030886;28;20036;-58
2022/05/01 01:25:49;;;;;;;0.32;0.32;;;;;;;;;;5029915;28;20455;-58
2022/05/01 01:28:14;;;;;;;0.90;0.90;;;;;;;;;;5031210;28;20546;-58
2022/05/01 01:33:26;;;;;;;0.00;0.00;;;;;;;;;;5031028;28;20499;-59
2022/05/01 01:35:52;;;;;;;0.00;0.00;;;;;;;;;;5031686;28;20033;-58
2022/05/01 01:38:18;;;;;;;0.00;0.00;;;;;;;;;;5031455;28;20021;-59
2022/05/01 01:41:04;;;;;;;0.00;0.00;;;;;;;;;;5031790;28;20037;-58
2022/05/01 01:43:30;;;;;;;0.00;0.00;;;;;;;;;;5029176;28;20064;-60
2022/05/01 01:45:55;;;;;;;0.00;0.00;;;;;;;;;;5030674;28;20077;-58
2022/05/01 01:48:21;;;;;;;0.00;0.00;;;;;;;;;;5030621;28;20068;-58
2022/05/01 01:50:56;;;;;;;0.00;0.00;;;;;;;;;;5030736;28;20014;-58
2022/05/01 01:53:21;;;;;;;0.00;0.00;;;;;;;;;;5029602;28;20028;-58
2022/05/01 01:55:46;;;;;;;0.63;0.63;;;;;;;;;;5030806;28;20104;-58
2022/05/01 01:58:12;;;;;;;0.32;0.32;;;;;;;;;;5031044;28;20026;-57
2022/05/01 02:00:37;;;;;;;0.10;0.10;;;;;;;;;;5030736;28;20036;-60
2022/05/01 02:03:04;;;;;;;0.00;0.00;;;;;;;;;;5029962;28;20056;-60
2022/05/01 02:05:29;;;;;;;0.00;0.00;;;;;;;;;;5029224;28;20028;-60
2022/05/01 02:07:55;;;;;;;0.00;0.00;;;;;;;;;;5030504;28;20033;-60
2022/05/01 02:10:20;;;;;;;0.00;0.00;;;;;;;;;;5029823;28;20021;-59
2022/05/01 02:12:45;;;;;;;0.00;0.00;;;;;;;;;;5029551;28;20021;-60
2022/05/01 02:15:11;;;;;;;0.40;0.40;;;;;;;;;;5029429;28;20021;-61
2022/05/01 02:17:38;;;;;;;0.03;0.03;;;;;;;;;;5029906;28;20467;-60
2022/05/01 02:20:03;;;;;;;0.00;0.00;;;;;;;;;;5031225;28;20108;-60
2022/05/01 02:22:29;;;;;;;0.00;0.00;;;;;;;;;;5030239;28;20112;-59
2022/05/01 02:24:54;;;;;;;1.40;1.40;;;;;;;;;;5030976;28;20061;-59
2022/05/01 02:27:20;;;;;;;0.00;0.00;;;;;;;;;;5030872;28;20026;-59
2022/05/01 02:29:45;;;;;;;0.00;0.00;;;;;;;;;;5029305;28;20462;-62
2022/05/01 02:32:10;;;;;;;0.00;0.00;;;;;;;;;;5030126;28;20025;-60
2022/05/01 02:34:35;;;;;;;0.00;0.00;;;;;;;;;;5030555;28;20017;-61
2022/05/01 02:37:01;;;;;;;0.13;0.13;;;;;;;;;;5029880;28;20060;-61
2022/05/01 02:39:26;;;;;;;0.28;0.28;;;;;;;;;;5011933;28;20029;-61
2022/05/01 02:41:51;;;;;;;0.00;0.00;;;;;;;;;;5028796;28;20037;-60
2022/05/01 02:44:16;;;;;;;0.00;0.00;;;;;;;;;;5029937;28;20021;-61
2022/05/01 02:46:42;;;;;;;0.00;0.00;;;;;;;;;;5029664;28;20045;-60
2022/05/01 02:49:10;;;;;;;0.00;0.00;;;;;;;;;;5029665;28;20132;-61
2022/05/01 02:51:36;;;;;;;0.00;0.00;;;;;;;;;;5029951;28;20056;-61
2022/05/01 02:54:04;;;;;;;0.00;0.00;;;;;;;;;;5030032;28;20026;-60
2022/05/01 02:56:30;;;;;;;0.00;0.00;;;;;;;;;;5028919;28;20029;-58
2022/05/01 02:58:55;;;;;;;0.00;0.00;;;;;;;;;;5029512;28;20104;-59
2022/05/01 03:01:21;;;;;;;0.30;0.30;;;;;;;;;;5029399;28;20196;-59
2022/05/01 03:03:46;;;;;;;0.00;0.00;;;;;;;;;;5029971;28;20021;-59
2022/05/01 03:06:11;;;;;;;0.40;0.40;;;;;;;;;;5028735;28;20092;-61
2022/05/01 03:08:36;;;;;;;0.30;0.30;;;;;;;;;;5029082;28;20026;-60
2022/05/01 03:11:01;;;;;;;0.00;0.00;;;;;;;;;;5028467;28;20032;-60
2022/05/01 03:13:27;;;;;;;0.00;0.00;;;;;;;;;;5029196;28;20113;-59
2022/05/01 03:15:52;;;;;;;0.00;0.00;;;;;;;;;;5030381;28;20104;-60
2022/05/01 03:23:46;;;;;;;0.00;0.00;;;;;;;;;;5029057;28;20060;-60
2022/05/01 03:26:11;;;;;;;0.00;0.00;;;;;;;;;;5028412;28;20129;-61
2022/05/01 03:28:36;;;;;;;0.13;0.13;;;;;;;;;;5028656;28;20029;-61
2022/05/01 03:31:03;;;;;;;0.08;0.08;;;;;;;;;;5028965;28;20025;-61
2022/05/01 03:33:29;;;;;;;0.10;0.10;;;;;;;;;;5010815;28;20471;-60
2022/05/01 03:35:55;;;;;;;0.15;0.15;;;;;;;;;;5029052;28;20037;-58
2022/05/01 03:38:21;;;;;;;0.00;0.00;;;;;;;;;;5027324;28;20021;-61
2022/05/01 03:40:49;;;;;;;0.00;0.00;;;;;;;;;;5026852;28;20108;-60
2022/05/01 03:43:18;;;;;;;0.00;0.00;;;;;;;;;;5010007;28;20061;-60
2022/05/01 03:45:43;;;;;;;2.00;0.65;;;;;;;;;;5019309;28;20050;-60
2022/05/01 03:48:09;;;;;;;0.65;0.65;;;;;;;;;;5006361;28;20494;-61
2022/05/01 03:50:34;;;;;;;0.22;0.22;;;;;;;;;;5008909;28;20524;-61
2022/05/01 03:53:00;;;;;;;1.08;1.00;;;;;;;;;;5009476;28;20383;-59
2022/05/01 03:55:25;;;;;;;0.35;0.35;;;;;;;;;;5010346;28;20037;-59
2022/05/01 03:57:50;;;;;;;0.00;0.00;;;;;;;;;;5010127;28;20451;-60
2022/05/01 04:00:18;;;;;;;0.00;0.00;;;;;;;;;;5012294;28;20036;-60
2022/05/01 04:02:44;;;;;;;0.00;0.00;;;;;;;;;;5008074;28;20458;-59
2022/05/01 04:05:10;;;;;;;0.85;0.85;;;;;;;;;;5008053;28;20463;-59
2022/05/01 04:07:36;;;;;;;0.10;0.10;;;;;;;;;;5007813;28;20076;-58
2022/05/01 04:10:01;;;;;;;0.10;0.10;;;;;;;;;;5008603;28;20018;-58
2022/05/01 04:12:27;;;;;;;0.00;0.00;;;;;;;;;;5007882;28;20061;-59
2022/05/01 04:14:52;;;;;;;0.10;0.10;;;;;;;;;;5007578;28;20050;-58
2022/05/01 04:17:17;;;;;;;0.00;0.00;;;;;;;;;;5009668;28;20116;-59
2022/05/01 04:19:42;;;;;;;0.00;0.00;;;;;;;;;;5002957;28;20022;-59
2022/05/01 04:22:07;;;;;;;0.00;0.00;;;;;;;;;;5009027;28;20030;-59
2022/05/01 04:24:33;;;;;;;0.17;0.17;;;;;;;;;;5008419;28;20080;-59
2022/05/01 04:26:58;;;;;;;0.00;0.00;;;;;;;;;;5008919;28;20466;-58
2022/05/01 04:29:40;;;;;;;0.00;0.00;;;;;;;;;;5007973;28;20109;-60
2022/05/01 04:32:06;;;;;;;1.08;0.98;;;;;;;;;;5008761;28;20402;-60
2022/05/01 04:34:32;;;;;;;0.00;0.00;;;;;;;;;;5004622;28;20041;-60
2022/05/01 04:36:58;;;;;;;0.47;0.47;;;;;;;;;;5004597;28;20049;-60
2022/05/01 04:39:23;;;;;;;0.00;0.00;;;;;;;;;;5007587;28;20030;-59
2022/05/01 04:41:49;;;;;;;0.00;0.00;;;;;;;;;;5007769;28;20041;-60
2022/05/01 04:44:14;;;;;;;0.00;0.00;;;;;;;;;;5008528;28;20080;-60
2022/05/01 04:46:39;;;;;;;0.00;0.00;;;;;;;;;;5026387;28;20045;-61
2022/05/01 04:49:04;;;;;;;0.00;0.00;;;;;;;;;;5028126;28;20435;-61
2022/05/01 04:51:30;;;;;;;0.00;0.00;;;;;;;;;;5027075;28;20017;-60
2022/05/01 04:53:55;;;;;;;0.00;0.00;;;;;;;;;;5030129;28;20030;-61
2022/05/01 04:59:07;;;;;;;0.00;0.00;;;;;;;;;;5032714;28;20063;-61
2022/05/01 05:01:32;;;;;;;0.00;0.00;;;;;;;;;;5031297;28;20064;-61
2022/05/01 05:03:59;;;;;;;0.00;0.00;;;;;;;;;;5031345;28;20056;-60
2022/05/01 05:06:24;;;;;;;0.00;0.00;;;;;;;;;;5030079;28;20385;-62
2022/05/01 05:11:33;;;;;;;0.22;0.22;;;;;;;;;;5030693;28;20087;-60
2022/05/01 05:13:58;;;;;;;0.32;0.32;;;;;;;;;;5031224;28;20030;-61
2022/05/01 05:16:23;;;;;;;0.45;0.45;;;;;;;;;;5030119;28;20025;-60
2022/05/01 05:18:48;;;;;;;0.00;0.00;;;;;;;;;;5031356;28;20746;-61
2022/05/01 05:21:13;;;;;;;0.00;0.00;;;;;;;;;;5031524;28;20036;-60
2022/05/01 05:23:39;;;;;;;0.00;0.00;;;;;;;;;;5030057;28;20122;-59
2022/05/01 05:26:04;;;;;;;0.55;0.55;;;;;;;;;;5031154;28;20496;-60
2022/05/01 05:28:29;;;;;;;1.55;0.98;;;;;;;;;;5029964;28;20082;-60
2022/05/01 05:30:54;;;;;;;1.25;1.23;;;;;;;;;;5031432;28;20045;-60
2022/05/01 05:33:20;;;;;;;0.00;0.00;;;;;;;;;;5030117;28;20459;-60
2022/05/01 05:35:45;;;;;;;0.00;0.00;;;;;;;;;;5030891;28;20044;-59
2022/05/01 05:38:10;;;;;;;2.15;2.05;;;;;;;;;;5030808;28;20091;-62
2022/05/01 05:40:36;;;;;;;0.05;0.05;;;;;;;;;;5030283;28;20029;-60
2022/05/01 05:43:01;;;;;;;0.80;0.80;;;;;;;;;;5031060;28;20482;-59
2022/05/01 05:45:26;;;;;;;0.00;0.00;;;;;;;;;;5030155;28;20067;-59
2022/05/01 05:47:52;;;;;;;0.55;0.55;;;;;;;;;;5031484;28;20022;-59
2022/05/01 05:50:17;;;;;;;0.00;0.00;;;;;;;;;;5031094;28;20474;-59
2022/05/01 05:52:42;;;;;;;0.00;0.00;;;;;;;;;;5031341;28;20108;-58
2022/05/01 05:55:08;;;;;;;1.20;1.15;;;;;;;;;;5031586;28;20057;-59
2022/05/01 05:57:33;;;;;;;1.25;1.15;;;;;;;;;;5030091;28;20478;-61
2022/05/01 05:59:59;;;;;;;0.65;0.65;;;;;;;;;;5030769;28;20056;-60
2022/05/01 06:02:24;;;;;;;0.00;0.00;;;;;;;;;;5029135;28;20032;-61
2022/05/01 06:04:49;;;;;;;0.00;0.00;;;;;;;;;;5029150;28;20462;-61
2022/05/01 06:07:14;;;;;;;0.70;0.70;;;;;;;;;;5029932;28;20029;-60
2022/05/01 06:09:39;;;;;;;0.00;0.00;;;;;;;;;;5029125;28;20481;-61
2022/05/01 06:12:05;;;;;;;0.00;0.00;;;;;;;;;;5030042;28;20025;-61
2022/05/01 06:14:30;;;;;;;0.20;0.20;;;;;;;;;;5029527;28;20022;-61
2022/05/01 06:16:55;;;;;;;3.05;2.80;;;;;;;;;;5029138;28;20474;-61
2022/05/01 06:19:21;;;;;;;4.18;0.80;;;;;;;;;;5028997;28;20029;-61
2022/05/01 06:21:46;;;;;;;0.32;0.32;;;;;;;;;;5029332;28;20017;-61
2022/05/01 06:24:11;;;;;;;0.55;0.55;;;;;;;;;;5028263;28;20057;-61
2022/05/01 06:26:36;;;;;;;1.40;1.40;;;;;;;;;;5030388;28;20101;-61
2022/05/01 06:29:02;;;;;;;2.95;0.93;;;;;;;;;;5030412;28;20033;-62
2022/05/01 06:31:28;;;;;;;1.10;1.10;;;;;;;;;;5026892;28;20021;-62
2022/05/01 06:33:54;;;;;;;0.22;0.22;;;;;;;;;;5032508;28;20394;-60
2022/05/01 06:36:19;;;;;;;0.30;0.30;;;;;;;;;;5030061;28;20026;-60
2022/05/01 06:38:45;;;;;;;0.00;0.00;;;;;;;;;;5028222;28;20029;-59
2022/05/01 06:41:11;;;;;;;0.00;0.00;;;;;;;;;;5031345;28;20033;-60
2022/05/01 06:43:36;;;;;;;0.00;0.00;;;;;;;;;;5030339;28;20052;-58
2022/05/01 06:46:01;;;;;;;0.88;0.88;;;;;;;;;;5028114;28;20053;-59
2022/05/01 06:48:27;;;;;;;0.00;0.00;;;;;;;;;;5029188;28;20025;-59
2022/05/01 06:50:52;;;;;;;0.10;0.10;;;;;;;;;;5029254;28;20014;-60
2022/05/01 06:53:17;;;;;;;0.00;0.00;;;;;;;;;;5029064;28;20021;-60
2022/05/01 06:55:42;;;;;;;0.00;0.00;;;;;;;;;;5026553;28;20144;-60
2022/05/01 06:58:08;;;;;;;0.00;0.00;;;;;;;;;;5029076;28;20494;-60
2022/05/01 07:00:33;;;;;;;0.00;0.00;;;;;;;;;;5027459;28;20033;-60
2022/05/01 07:02:59;;;;;;;0.10;0.10;;;;;;;;;;5029379;28;20022;-60
2022/05/01 07:05:24;;;;;;;0.00;0.00;;;;;;;;;;5028010;28;20036;-61
2022/05/01 07:07:50;;;;;;;0.00;0.00;;;;;;;;;;5027803;28;20086;-61
2022/05/01 07:10:15;;;;;;;0.00;0.00;;;;;;;;;;5029067;28;20402;-60
2022/05/01 07:12:40;;;;;;;0.00;0.00;;;;;;;;;;5028155;28;20128;-61
2022/05/01 07:15:06;;;;;;;0.32;0.32;;;;;;;;;;5028140;28;20033;-60
2022/05/01 07:17:32;;;;;;;0.00;0.00;;;;;;;;;;5027888;28;20026;-60
2022/05/01 07:19:57;;;;;;;1.88;0.57;;;;;;;;;;5028188;28;20075;-59
2022/05/01 07:22:23;;;;;;;5.22;1.98;;;;;;;;;;5026934;28;20044;-59
2022/05/01 07:24:48;;;;;;;0.00;0.00;;;;;;;;;;5027420;28;20035;-59
2022/05/01 07:27:13;;;;;;;0.05;0.05;;;;;;;;;;5029095;28;20030;-59
2022/05/01 07:29:38;;;;;;;0.00;0.00;;;;;;;;;;5026526;28;20016;-59
2022/05/01 07:32:04;;;;;;;0.00;0.00;;;;;;;;;;5028699;28;20056;-59
2022/05/01 07:34:29;;;;;;;0.00;0.00;;;;;;;;;;5026863;28;20019;-60
2022/05/01 07:36:54;;;;;;;0.00;0.00;;;;;;;;;;5025987;28;20430;-61
2022/05/01 07:39:20;;;;;;;0.28;0.28;;;;;;;;;;5005998;28;20028;-60
2022/05/01 07:41:45;;;;;;;0.75;0.75;;;;;;;;;;5028221;28;20527;-60
2022/05/01 07:44:11;;;;;;;0.80;0.80;;;;;;;;;;5026941;28;20032;-60
2022/05/01 07:46:36;;;;;;;0.00;0.00;;;;;;;;;;5027288;28;20046;-60
2022/05/01 07:49:02;;;;;;;0.00;0.00;;;;;;;;;;5028177;28;20516;-60
2022/05/01 07:51:27;;;;;;;0.13;0.13;;;;;;;;;;5026050;28;20021;-60
2022/05/01 07:53:53;;;;;;;0.10;0.10;;;;;;;;;;5028133;28;20134;-59
2022/05/01 07:56:19;;;;;;;0.63;0.63;;;;;;;;;;5027381;28;20032;-59
2022/05/01 07:58:44;;;;;;;1.55;1.45;;;;;;;;;;5027065;28;20025;-59
2022/05/01 08:01:09;;;;;;;0.45;0.45;;;;;;;;;;5028034;28;20377;-59
2022/05/01 08:06:19;;;;;;;0.00;0.00;;;;;;;;;;5027506;28;20474;-59
2022/05/01 08:08:44;;;;;;;0.55;0.55;;;;;;;;;;5028432;28;20037;-59
2022/05/01 08:11:12;;;;;;;0.00;0.00;;;;;;;;;;5027606;28;20489;-59
2022/05/01 08:13:38;;;;;;;0.20;0.20;;;;;;;;;;5027745;28;20033;-59
2022/05/01 08:16:03;;;;;;;0.52;0.52;;;;;;;;;;5027744;28;20022;-59
2022/05/01 08:21:12;;;;;;;0.20;0.20;;;;;;;;;;5027659;28;20045;-59
2022/05/01 08:23:38;;;;;;;0.17;0.17;;;;;;;;;;5026849;28;20029;-59
2022/05/01 08:26:05;;;;;;;10.98;8.40;;;;;;;;;;5026667;28;20026;-59
2022/05/01 08:28:31;;;;;;;0.30;0.30;;;;;;;;;;5030474;28;20455;-60
2022/05/01 08:30:56;;;;;;;1.13;1.13;;;;;;;;;;5032224;28;20029;-59
2022/05/01 08:33:21;;;;;;;0.43;0.43;;;;;;;;;;5031326;28;20029;-59
2022/05/01 08:35:47;;;;;;;0.93;0.85;;;;;;;;;;5032057;28;20025;-59
2022/05/01 08:38:12;;;;;;;0.43;0.40;;;;;;;;;;5031915;28;20033;-59
2022/05/01 08:40:37;;;;;;;0.63;0.63;;;;;;;;;;5032542;28;20164;-59
2022/05/01 08:43:02;;;;;;;1.13;1.13;;;;;;;;;;5031071;28;20026;-59
2022/05/01 08:45:33;;;;;;;0.82;0.82;;;;;;;;;;5030190;28;20687;-58
2022/05/01 08:48:08;;;;;;;0.00;0.00;;;;;;;;;;5031056;28;20029;-58
2022/05/01 08:50:36;;;;;;;0.77;0.77;;;;;;;;;;5030301;28;20091;-59
2022/05/01 08:53:02;;;;;;;2.17;1.97;;;;;;;;;;5029324;28;20033;-59
2022/05/01 08:55:29;;;;;;;0.00;0.00;;;;;;;;;;5030182;28;20273;-59
2022/05/01 08:57:54;;;;;;;0.60;0.40;;;;;;;;;;5031258;28;20041;-59
2022/05/01 09:00:20;;;;;;;0.77;0.77;;;;;;;;;;5030848;28;20584;-59
2022/05/01 09:02:45;;;;;;;0.00;0.00;;;;;;;;;;5031466;28;20374;-59
2022/05/01 09:05:12;;;;;;;1.23;0.60;;;;;;;;;;5032204;28;20108;-59
2022/05/01 09:07:37;;;;;;;0.40;0.40;;;;;;;;;;5030743;28;20465;-58
2022/05/01 09:10:03;;;;;;;1.08;1.08;;;;;;;;;;5030086;28;20026;-59
2022/05/01 09:15:12;;;;;;;0.00;0.00;;;;;;;;;;5031077;28;20168;-58
2022/05/01 09:17:37;;;;;;;0.00;0.00;;;;;;;;;;5030589;28;20142;-58
2022/05/01 09:20:06;;;;;;;0.22;0.22;;;;;;;;;;5031677;28;20030;-57
2022/05/01 09:22:46;;;;;;;1.60;1.50;;;;;;;;;;5030530;28;20029;-57
2022/05/01 09:25:15;;;;;;;0.43;0.43;;;;;;;;;;5030095;28;20510;-56
2022/05/01 09:27:40;;;;;;;0.00;0.00;;;;;;;;;;5030187;28;20858;-56
2022/05/01 09:30:16;;;;;;;0.03;0.03;;;;;;;;;;5031435;28;20104;-57
2022/05/01 09:32:42;;;;;;;0.00;0.00;;;;;;;;;;5030443;28;20033;-56
2022/05/01 09:35:11;;;;;;;0.32;0.32;;;;;;;;;;5029237;28;20387;-58
2022/05/01 09:37:36;;;;;;;1.80;1.42;;;;;;;;;;5030446;28;20386;-58
2022/05/01 09:40:01;;;;;;;1.23;1.13;;;;;;;;;;5030687;28;20035;-58
2022/05/01 09:42:29;;;;;;;0.17;0.17;;;;;;;;;;5031054;28;20057;-57
2022/05/01 09:45:08;;;;;;;0.63;0.30;;;;;;;;;;5029034;28;20021;-57
2022/05/01 09:47:34;;;;;;;0.00;0.00;;;;;;;;;;5016226;28;20081;-57
2022/05/01 09:50:01;;;;;;;0.00;0.00;;;;;;;;;;5014616;28;20108;-58
2022/05/01 09:52:46;;;;;;;0.00;0.00;;;;;;;;;;5018411;28;20034;-58
2022/05/01 09:55:12;;;;;;;0.10;0.10;;;;;;;;;;5012655;28;20111;-57
2022/05/01 09:57:37;;;;;;;0.00;0.00;;;;;;;;;;5019171;28;20057;-57
2022/05/01 10:00:03;;;;;;;0.20;0.20;;;;;;;;;;5012984;28;20029;-58
2022/05/01 10:02:29;;;;;;;0.73;0.73;;;;;;;;;;5014418;28;20354;-58
2022/05/01 10:04:56;;;;;;;0.20;0.20;;;;;;;;;;5011263;28;20030;-58
2022/05/01 10:07:21;;;;;;;0.00;0.00;;;;;;;;;;5016797;28;20034;-57
2022/05/01 10:09:47;;;;;;;2.08;1.95;;;;;;;;;;5024317;28;20021;-57
2022/05/01 10:12:14;;;;;;;0.00;0.00;;;;;;;;;;5011994;28;20048;-57
2022/05/01 10:14:39;;;;;;;0.77;0.75;;;;;;;;;;5019120;28;20049;-58
2022/05/01 10:17:06;;;;;;;0.13;0.13;;;;;;;;;;5013511;28;20057;-58
2022/05/01 10:19:32;;;;;;;0.00;0.00;;;;;;;;;;5016133;28;20044;-56
2022/05/01 10:21:59;;;;;;;0.00;0.00;;;;;;;;;;5014092;28;20430;-58
2022/05/01 10:24:25;;;;;;;0.88;0.82;;;;;;;;;;5006747;28;20025;-57
2022/05/01 10:26:59;;;;;;;0.38;0.38;;;;;;;;;;5018440;28;20387;-58
2022/05/01 10:29:37;;;;;;;0.00;0.00;;;;;;;;;;5013037;28;20052;-58
2022/05/01 10:32:23;;;;;;;4.82;2.15;;;;;;;;;;5017959;28;20459;-59
2022/05/01 10:34:48;;;;;;;0.60;0.60;;;;;;;;;;5015938;28;20097;-58
2022/05/01 10:37:14;;;;;;;0.00;0.00;;;;;;;;;;5019461;28;20096;-58
2022/05/01 10:39:40;;;;;;;0.45;0.45;;;;;;;;;;5017631;28;20261;-58
2022/05/01 10:42:06;;;;;;;0.00;0.00;;;;;;;;;;5012965;28;20439;-58
2022/05/01 10:44:35;;;;;;;1.33;1.17;;;;;;;;;;5015925;28;20103;-59
2022/05/01 10:47:13;;;;;;;7.15;1.65;;;;;;;;;;5015002;28;20061;-57
2022/05/01 10:49:43;;;;;;;0.08;0.08;;;;;;;;;;5010286;28;20017;-57
2022/05/01 10:52:28;;;;;;;1.08;1.08;;;;;;;;;;5008150;28;20022;-57
2022/05/01 10:54:54;;;;;;;0.00;0.00;;;;;;;;;;5009462;28;20057;-57
2022/05/01 10:57:20;;;;;;;0.65;0.65;;;;;;;;;;5011854;28;20025;-57
2022/05/01 10:59:47;;;;;;;1.08;1.08;;;;;;;;;;5005910;28;20017;-58
2022/05/01 11:02:19;;;;;;;0.30;0.22;;;;;;;;;;5012022;28;20030;-58
2022/05/01 11:04:45;;;;;;;0.52;0.52;;;;;;;;;;5012784;28;20052;-58
2022/05/01 11:07:11;;;;;;;0.03;0.03;;;;;;;;;;5010550;28;21263;-58
2022/05/01 11:09:36;;;;;;;1.05;1.05;;;;;;;;;;5008141;28;20025;-57
2022/05/01 11:12:02;;;;;;;0.13;0.13;;;;;;;;;;5012985;28;20459;-57
2022/05/01 11:15:00;;;;;;;0.57;0.57;;;;;;;;;;5013017;28;20021;-59
2022/05/01 11:17:39;;;;;;;0.80;0.80;;;;;;;;;;4959708;28;20494;-57
2022/05/01 11:20:22;;;;;;;0.38;0.38;;;;;;;;;;5011309;28;20436;-58
2022/05/01 11:22:48;;;;;;;1.65;1.60;;;;;;;;;;5009023;28;20034;-57
2022/05/01 11:25:36;;;;;;;3.15;2.40;;;;;;;;;;5010563;28;20115;-57
2022/05/01 11:28:02;;;;;;;0.00;0.00;;;;;;;;;;5015631;28;20025;-57
2022/05/01 11:30:27;;;;;;;0.47;0.40;;;;;;;;;;5009330;28;20044;-57
2022/05/01 11:33:02;;;;;;;1.27;1.27;;;;;;;;;;5019509;28;20030;-57
2022/05/01 11:35:46;;;;;;;0.05;0.05;;;;;;;;;;5011761;28;20095;-58
2022/05/01 11:38:11;;;;;;;3.13;3.03;;;;;;;;;;5021926;28;20030;-58
2022/05/01 11:40:36;;;;;;;0.45;0.45;;;;;;;;;;5012489;28;20053;-57
2022/05/01 11:43:15;;;;;;;0.00;0.00;;;;;;;;;;5023874;28;20017;-58
2022/05/01 11:45:40;;;;;;;0.00;0.00;;;;;;;;;;5015334;28;20045;-57
2022/05/01 11:48:12;;;;;;;0.00;0.00;;;;;;;;;;5015497;28;20669;-57
2022/05/01 11:50:38;;;;;;;0.22;0.22;;;;;;;;;;5011118;28;20017;-57
2022/05/01 11:53:06;;;;;;;1.20;1.20;;;;;;;;;;5019014;28;20034;-57
2022/05/01 12:03:48;;;;;;;;;;;;;;;;;;5009937;28;20415;-59
2022/05/01 12:06:22;;;;;;;4.83;2.00;;;;;;;;;;5007111;28;19914;-58
2022/05/01 12:08:49;;;;;;;0.00;0.00;;;;;;;;;;5014637;28;20672;-57
2022/05/01 12:11:25;;;;;;;0.00;0.00;;;;;;;;;;5010304;28;20022;-59
2022/05/01 12:14:01;;;;;;;0.00;0.00;;;;;;;;;;5012015;28;20057;-57
2022/05/01 12:16:27;;;;;;;0.28;0.28;;;;;;;;;;5021559;28;20029;-56
2022/05/01 12:18:52;;;;;;;0.00;0.00;;;;;;;;;;5009559;28;20045;-57
2022/05/01 12:21:27;;;;;;;0.95;0.38;;;;;;;;;;5006662;28;20479;-57
2022/05/01 12:23:53;;;;;;;2.55;2.45;;;;;;;;;;5010586;28;20116;-57
2022/05/01 12:26:18;;;;;;;0.10;0.10;;;;;;;;;;4991679;28;20108;-58
2022/05/01 12:28:43;;;;;;;0.22;0.22;;;;;;;;;;5015309;28;20026;-58
2022/05/01 12:31:09;;;;;;;0.43;0.43;;;;;;;;;;5009158;28;20037;-55
2022/05/01 12:33:34;;;;;;;0.00;0.00;;;;;;;;;;5014533;28;20026;-58
2022/05/01 12:35:59;;;;;;;1.73;1.63;;;;;;;;;;5018766;28;20040;-57
2022/05/01 12:38:28;;;;;;;0.20;0.20;;;;;;;;;;5010476;28;20522;-58
2022/05/01 12:43:53;;;;;;;0.10;0.10;;;;;;;;;;5014449;28;20100;-56
2022/05/01 12:46:28;;;;;;;5.55;3.08;;;;;;;;;;5019159;28;20045;-57
2022/05/01 12:48:54;;;;;;;0.30;0.30;;;;;;;;;;5028293;28;20033;-58
2022/05/01 12:51:19;;;;;;;4.68;1.02;;;;;;;;;;5029405;28;20390;-58
2022/05/01 12:53:45;;;;;;;1.23;1.23;;;;;;;;;;5027137;28;20111;-56
2022/05/01 12:56:18;;;;;;;0.10;0.10;;;;;;;;;;5027691;28;20025;-54
2022/05/01 12:58:43;;;;;;;0.15;0.15;;;;;;;;;;5028680;28;20492;-55
2022/05/01 13:01:20;;;;;;;0.70;0.55;;;;;;;;;;5026632;28;20021;-58
2022/05/01 13:03:45;;;;;;;0.00;0.00;;;;;;;;;;5029688;28;20032;-61
2022/05/01 13:06:11;;;;;;;0.00;0.00;;;;;;;;;;5030669;28;20029;-60
2022/05/01 13:08:38;;;;;;;0.22;0.22;;;;;;;;;;5030827;28;20052;-62
2022/05/01 13:11:21;;;;;;;0.38;0.38;;;;;;;;;;5031781;28;20351;-61
2022/05/01 13:13:52;;;;;;;0.00;0.00;;;;;;;;;;5032974;28;20035;-60
2022/05/01 13:16:40;;;;;;;0.00;0.00;;;;;;;;;;5031213;28;20033;-60
2022/05/01 13:19:19;;;;;;;0.50;0.37;;;;;;;;;;5022631;28;20482;-60
2022/05/01 13:21:46;;;;;;;0.70;0.70;;;;;;;;;;5031654;28;20304;-59
2022/05/01 13:24:13;;;;;;;0.70;0.70;;;;;;;;;;5032232;28;20079;-57
2022/05/01 13:26:39;;;;;;;1.63;1.52;;;;;;;;;;5031735;28;20018;-60
2022/05/01 13:29:09;;;;;;;0.00;0.00;;;;;;;;;;5031177;28;20075;-58
2022/05/01 13:31:35;;;;;;;0.00;0.00;;;;;;;;;;5032308;28;20026;-59
2022/05/01 13:34:01;;;;;;;1.80;1.70;;;;;;;;;;5031254;28;20029;-57
2022/05/01 13:36:26;;;;;;;0.00;0.00;;;;;;;;;;5031973;28;20087;-57
2022/05/01 13:38:51;;;;;;;0.00;0.00;;;;;;;;;;5034867;28;20033;-58
2022/05/01 13:46:44;;;;;;;0.00;0.00;;;;;;;;;;5032748;28;20137;-57
2022/05/01 13:49:10;;;;;;;0.00;0.00;;;;;;;;;;5033045;28;20104;-57
2022/05/01 13:51:35;;;;;;;0.00;0.00;;;;;;;;;;5015004;28;20037;-58
2022/05/01 13:54:00;;;;;;;0.55;0.55;;;;;;;;;;5033521;28;20025;-59
2022/05/01 13:56:26;;;;;;;0.35;0.35;;;;;;;;;;5017699;28;20105;-59
2022/05/01 13:58:51;;;;;;;1.45;1.35;;;;;;;;;;5035072;28;20017;-60
2022/05/01 14:01:17;;;;;;;1.10;1.10;;;;;;;;;;5035925;28;20028;-59
2022/05/01 14:03:43;;;;;;;0.00;0.00;;;;;;;;;;5035272;28;20063;-60
2022/05/01 14:06:09;;;;;;;0.00;0.00;;;;;;;;;;5035085;28;20021;-60
2022/05/01 14:08:35;;;;;;;0.00;0.00;;;;;;;;;;5035292;28;20017;-61
2022/05/01 14:11:01;;;;;;;2.65;2.42;;;;;;;;;;5035213;28;20489;-59
2022/05/01 14:13:26;;;;;;;0.88;0.88;;;;;;;;;;5034818;28;20025;-60
2022/05/01 14:15:52;;;;;;;0.00;0.00;;;;;;;;;;5034010;28;20116;-61
2022/05/01 14:18:18;;;;;;;0.00;0.00;;;;;;;;;;5026257;28;20029;-57
2022/05/01 14:20:45;;;;;;;0.08;0.08;;;;;;;;;;5034345;28;20101;-59
2022/05/01 14:23:12;;;;;;;0.35;0.28;;;;;;;;;;5033832;28;20037;-61
2022/05/01 14:25:37;;;;;;;0.00;0.00;;;;;;;;;;5040304;28;20019;-60
2022/05/01 14:28:03;;;;;;;0.00;0.00;;;;;;;;;;5035148;28;20116;-59
2022/05/01 14:30:30;;;;;;;0.00;0.00;;;;;;;;;;5033041;28;20021;-60
2022/05/01 14:32:59;;;;;;;0.65;0.65;;;;;;;;;;5033323;28;20496;-59
2022/05/01 14:35:28;;;;;;;0.00;0.00;;;;;;;;;;5032826;28;20028;-59
2022/05/01 14:37:57;;;;;;;0.75;0.70;;;;;;;;;;5032438;28;20053;-59
2022/05/01 14:40:27;;;;;;;0.80;0.63;;;;;;;;;;5031575;28;20481;-59
2022/05/01 14:42:52;;;;;;;2.08;0.45;;;;;;;;;;5032338;28;20037;-58
2022/05/01 14:45:26;;;;;;;0.00;0.00;;;;;;;;;;5032710;28;20044;-61
2022/05/01 14:47:54;;;;;;;0.00;0.00;;;;;;;;;;5031568;28;20112;-59
2022/05/01 14:50:19;;;;;;;1.33;1.33;;;;;;;;;;5031739;28;20100;-58
2022/05/01 14:52:52;;;;;;;0.00;0.00;;;;;;;;;;5030286;28;20112;-60
2022/05/01 14:55:19;;;;;;;0.20;0.20;;;;;;;;;;5030985;28;20041;-60
2022/05/01 14:57:45;;;;;;;0.00;0.00;;;;;;;;;;5033754;28;20044;-59
2022/05/01 15:08:24;;;;;;;0.00;0.00;;;;;;;;;;5028169;28;20055;-58
2022/05/01 15:10:49;;;;;;;0.00;0.00;;;;;;;;;;5031265;28;20021;-59
2022/05/01 15:13:15;;;;;;;0.00;0.00;;;;;;;;;;5032503;28;20516;-59
2022/05/01 15:15:52;;;;;;;0.00;0.00;;;;;;;;;;5029275;28;20025;-58
2022/05/01 15:18:19;;;;;;;0.00;0.00;;;;;;;;;;5028845;28;20087;-57
2022/05/01 15:20:48;;;;;;;0.65;0.65;;;;;;;;;;5030260;28;20064;-59
2022/05/01 15:23:19;;;;;;;0.73;0.73;;;;;;;;;;5030812;28;20429;-59
2022/05/01 15:25:50;;;;;;;0.45;0.45;;;;;;;;;;5031115;28;20044;-59
2022/05/01 15:28:18;;;;;;;1.25;0.98;;;;;;;;;;5030989;28;20025;-58
2022/05/01 15:30:47;;;;;;;0.00;0.00;;;;;;;;;;5031995;28;20017;-59